Redwood City, CA

1:57 PM PDT on September 22, 2014 (GMT -0700)
San Carlos | Change Station
CLOSE
Current Station
Airport
Location: San Carlos,
Elevation: 3 ft
Nearby Weather Stations

Elev 3 ft 37.51 °N, 122.25 °W | Updated 10 minutes ago

Clear
Clear
72 °F
Feels Like 72 °F
N
7
Wind Variable Wind from NE

Today
High -- | Low -- °F
--% Chance of Precip.
Yesterday
High -- | Low -- °F
Precip. -- in
6:56 AM 7:05 PM
Waning Crescent, 2% visible
Pressure 30.00 in
Visibility 10.0 miles
Clouds Few 15000 ft
Dew Point 59 °F
Humidity 64%
Rainfall 0.00 in
Snow Depth 0 in , 0 in , 0 in
UV 7 out of 12
Pollen 3.70 out of 12
Air Quality Not available.
Flu Activity Not available.
METAR KSQL 222047Z 04006KT 10SM FEW150 22/15 A3000

More Conditions Fewer Conditions

Pressure 30.00 in
Visibility 10.0 miles
Clouds Few 15000 ft
Dew Point 59 °F
Humidity 64%
Rainfall 0.00 in
Snow Depth 0 in , 0 in , 0 in
UV 7 out of 12
Pollen 3.70 out of 12
Air Quality Not available.
Flu Activity Not available.
METAR KSQL 222047Z 04006KT 10SM FEW150 22/15 A3000

More Conditions Fewer Conditions

10-Day Weather Forecast

Almanac

Astronomy

Sep. 22, 2014 Rise Set
Actual Time 6:56 AM PDT 7:05 PM PDT
Civil Twilight 6:30 AM PDT 7:31 PM PDT
Nautical Twilight 6:00 AM PDT 8:02 PM PDT
Astronomical Twilight 5:29 AM PDT 8:33 PM PDT
Moon 5:31 AM PDT 6:15 PM PDT
Length of Visible Light 13h 01m
Length of Day
12h 08m
Tomorrow will be 2m 24s shorter.
Waning Crescent, 2% of the Moon is Illuminated
Today
Waning Crescent
Sep 24
New
Oct 1
First Quarter
Oct 8
Full
Oct 15
Last Quarter

Today's Extremes

State Highs State Lows

Community

WunderPhotos

Upload Photos

1,755,522 photos uploaded!

WunderBlogs® & News

Nearby

Air Quality

  Air Quality AQ Index Pollutant
Yesterday Good
OZONE
Yesterday Good
PM2.5
Monday Good
PM2.5
Tuesday Good
PM2.5
Wednesday Good
PM2.5
Thursday Good
OZONE
Friday Good
OZONE
Saturday Good
OZONE

Snow Depth

Station Depth Elevation
Summit Meadow 0 in 9122 ft
Rubicon #2 0 in 7500 ft
Leavitt Meadows 0 in 7200 ft
CSS Lab 3 in 6900 ft
Adin Mountain 0 in 6200 ft

Earthquake Activity

City Distance Mag. Time & Date
Sonoma, California 57 miles 2.7 1:17 PM PDT
2014-09-21
Cloverdale, California 97 miles 2.5 9:15 PM PDT
2014-09-20
Livermore, California 30 miles 2.6 3:37 AM PDT
2014-09-19
Minimum magnitude displayed is 2.5.

Coastal Water Temperatures

Place Temperature
No Stations Reporting

Nearby Weather Stations